Bigroll Bering — P.C.Z.E — position and weather

sailwx.info

Track history (hours):
 
Tides and Currents Weather Stations Pressure Air Temp Water Temp Dewpoint Dewpoint Depression Visibility Wind Speed Wind Dir Waves Ship Positions

Bigroll Bering

Last reported at 2018-Jun-22 15:10 UTC. Time now 2018-Jun-23 10:03 UTC.
Position N 36°49' W 000°48'.

Length 173 m; draft 5.5 m.

Type: Cargo ship. MMSI: 244830431.

Date/timePositionNaut miles runAvg speedWind from/ knotsBaromVisibWave heightAir tempDewpointWater temp
2018-Jun-22 15:10N 36°49' W 000°48'2 9.8
2018-Jun-22 15:00N 36°50' W 000°46'5 9.7
2018-Jun-22 14:30N 36°51' W 000°40'5 9.6
2018-Jun-22 14:00N 36°53' W 000°35'5 9.8
2018-Jun-22 13:30N 36°55' W 000°29'810.1
2018-Jun-22 12:41N 36°57' W 000°19'210.1
2018-Jun-22 12:26N 36°58' W 000°16'710.1
2018-Jun-22 11:46N 37°00' W 000°08'3 9.9
2018-Jun-22 11:28N 37°01' W 000°05'5 9.9
2018-Jun-22 10:56N 37°03' E 000°02'610.0
2018-Jun-22 10:19N 37°05' E 000°09'3 9.9
2018-Jun-22 09:58N 37°06' E 000°13'510.0
2018-Jun-22 09:29N 37°08' E 000°19'510.1
2018-Jun-22 08:59N 37°09' E 000°25'510.0
2018-Jun-22 08:30N 37°11' E 000°30'510.0
2018-Jun-22 08:00N 37°13' E 000°36'510.0
2018-Jun-22 07:30N 37°14' E 000°42'5 9.8
2018-Jun-22 07:00N 37°16' E 000°48'5 9.7
2018-Jun-22 06:30N 37°17' E 000°54'5 9.8
2018-Jun-22 06:00N 37°19' E 000°60'5 9.8
2018-Jun-22 05:30N 37°21' E 001°05'5 9.8
2018-Jun-22 05:00N 37°22' E 001°11'5 9.9
2018-Jun-22 04:30N 37°24' E 001°17'510.0
2018-Jun-22 04:00N 37°25' E 001°23'510.0
2018-Jun-22 03:30N 37°27' E 001°29'510.0
2018-Jun-22 03:00N 37°29' E 001°35'5 9.7
2018-Jun-22 02:30N 37°30' E 001°41'6 9.8
2018-Jun-22 01:53N 37°32' E 001°48'51 9.8
2018-Jun-21 20:40N 37°49' E 002°49'2 9.1
2018-Jun-21 20:28N 37°49' E 002°51'4 9.0
2018-Jun-21 19:59N 37°51' E 002°56'4 9.0
2018-Jun-21 19:30N 37°52' E 003°01'5 8.9
2018-Jun-21 19:00N 37°54' E 003°07'4 8.8
2018-Jun-21 18:30N 37°55' E 003°12'4 8.6
2018-Jun-21 18:00N 37°55' E 003°18'4 8.7
2018-Jun-21 17:30N 37°55' E 003°23'6 8.7
2018-Jun-21 16:52N 37°55' E 003°30'3 8.7
2018-Jun-21 16:30N 37°55' E 003°34'4 8.6
2018-Jun-21 16:00N 37°55' E 003°40'4 8.6
2018-Jun-21 15:30N 37°55' E 003°45'5 8.8
2018-Jun-21 14:59N 37°55' E 003°51'4 9.0
2018-Jun-21 14:29N 37°55' E 003°56'4 9.1
2018-Jun-21 14:00N 37°55' E 004°02'107 9.9
2018-Jun-21 03:14N 37°54' E 006°17'311.3
2018-Jun-21 02:57N 37°54' E 006°21'36210.4
2018-Jun-19 16:12N 36°25' E 013°41'210.4
2018-Jun-19 16:00N 36°24' E 013°44'610.0
2018-Jun-19 15:26N 36°22' E 013°50'4 9.8
2018-Jun-19 15:00N 36°20' E 013°55'  
2018-Jun-14 13:05N 31°32' E 032°16'9 9.0
2018-Jun-14 12:02N 31°28' E 032°27'0 8.7
2018-Jun-14 11:59N 31°28' E 032°27'4 8.7
2018-Jun-14 11:30N 31°24' E 032°25'4 8.3
2018-Jun-14 11:00N 31°20' E 032°23'7 0.5
2018-Jun-13 19:51N 31°13' E 032°21'0 0.0
2018-Jun-13 19:27N 31°13' E 032°21'  
Track history (hours):
 
Tides and Currents Weather Stations Pressure Air Temp Water Temp Dewpoint Dewpoint Depression Visibility Wind Speed Wind Dir Waves Ship Positions

Bigroll Bering

Last reported at 2018-Jun-22 15:10 UTC. Time now 2018-Jun-23 10:03 UTC.
Position N 36°49' W 000°48'.

Length 173 m; draft 5.5 m.

Type: Cargo ship. MMSI: 244830431.

Date/timePositionNaut miles runAvg speedWind from/ knotsBaromVisibWave heightAir tempDewpointWater temp
2018-Jun-22 15:10N 36°49' W 000°48'2 9.8
2018-Jun-22 15:00N 36°50' W 000°46'5 9.7
2018-Jun-22 14:30N 36°51' W 000°40'5 9.6
2018-Jun-22 14:00N 36°53' W 000°35'5 9.8
2018-Jun-22 13:30N 36°55' W 000°29'810.1
2018-Jun-22 12:41N 36°57' W 000°19'210.1
2018-Jun-22 12:26N 36°58' W 000°16'710.1
2018-Jun-22 11:46N 37°00' W 000°08'3 9.9
2018-Jun-22 11:28N 37°01' W 000°05'5 9.9
2018-Jun-22 10:56N 37°03' E 000°02'610.0
2018-Jun-22 10:19N 37°05' E 000°09'3 9.9
2018-Jun-22 09:58N 37°06' E 000°13'510.0
2018-Jun-22 09:29N 37°08' E 000°19'510.1
2018-Jun-22 08:59N 37°09' E 000°25'510.0
2018-Jun-22 08:30N 37°11' E 000°30'510.0
2018-Jun-22 08:00N 37°13' E 000°36'510.0
2018-Jun-22 07:30N 37°14' E 000°42'5 9.8
2018-Jun-22 07:00N 37°16' E 000°48'5 9.7
2018-Jun-22 06:30N 37°17' E 000°54'5 9.8
2018-Jun-22 06:00N 37°19' E 000°60'5 9.8
2018-Jun-22 05:30N 37°21' E 001°05'5 9.8
2018-Jun-22 05:00N 37°22' E 001°11'5 9.9
2018-Jun-22 04:30N 37°24' E 001°17'510.0
2018-Jun-22 04:00N 37°25' E 001°23'510.0
2018-Jun-22 03:30N 37°27' E 001°29'510.0
2018-Jun-22 03:00N 37°29' E 001°35'5 9.7
2018-Jun-22 02:30N 37°30' E 001°41'6 9.8
2018-Jun-22 01:53N 37°32' E 001°48'51 9.8
2018-Jun-21 20:40N 37°49' E 002°49'2 9.1
2018-Jun-21 20:28N 37°49' E 002°51'4 9.0
2018-Jun-21 19:59N 37°51' E 002°56'4 9.0
2018-Jun-21 19:30N 37°52' E 003°01'5 8.9
2018-Jun-21 19:00N 37°54' E 003°07'4 8.8
2018-Jun-21 18:30N 37°55' E 003°12'4 8.6
2018-Jun-21 18:00N 37°55' E 003°18'4 8.7
2018-Jun-21 17:30N 37°55' E 003°23'6 8.7
2018-Jun-21 16:52N 37°55' E 003°30'3 8.7
2018-Jun-21 16:30N 37°55' E 003°34'4 8.6
2018-Jun-21 16:00N 37°55' E 003°40'4 8.6
2018-Jun-21 15:30N 37°55' E 003°45'5 8.8
2018-Jun-21 14:59N 37°55' E 003°51'4 9.0
2018-Jun-21 14:29N 37°55' E 003°56'4 9.1
2018-Jun-21 14:00N 37°55' E 004°02'107 9.9
2018-Jun-21 03:14N 37°54' E 006°17'311.3
2018-Jun-21 02:57N 37°54' E 006°21'36210.4
2018-Jun-19 16:12N 36°25' E 013°41'210.4
2018-Jun-19 16:00N 36°24' E 013°44'610.0
2018-Jun-19 15:26N 36°22' E 013°50'4 9.8
2018-Jun-19 15:00N 36°20' E 013°55'  
2018-Jun-14 13:05N 31°32' E 032°16'9 9.0
2018-Jun-14 12:02N 31°28' E 032°27'0 8.7
2018-Jun-14 11:59N 31°28' E 032°27'4 8.7
2018-Jun-14 11:30N 31°24' E 032°25'4 8.3
2018-Jun-14 11:00N 31°20' E 032°23'7 0.5
2018-Jun-13 19:51N 31°13' E 032°21'0 0.0
2018-Jun-13 19:27N 31°13' E 032°21'  

Dump ship's entire track history